Time;durP1;ratioP1;P1;durP2;ratioP2;P2;SDS_P1;SDS_P2;PMS_P1;PMS_P2;Temp;Humidity;BMP_temperature;BMP_pressure;BME280_temperature;BME280_humidity;BME280_pressure;Samples;Min_cycle;Max_cycle;Signal;HPM_P1;HPM_P2
2021/04/19 00:01:27;;;;;;;;;;;;;;;;;;5009166;28;19905;-69
2021/04/19 00:03:53;;;;;;;;;;;;;;;;;;5011479;28;19905;-66
2021/04/19 00:06:19;;;;;;;;;;;;;;;;;;5011713;28;19918;-66
2021/04/19 00:08:45;;;;;;;;;;;;;;;;;;5011406;28;19980;-67
2021/04/19 00:11:11;;;;;;;;;;;;;;;;;;5010994;28;19912;-68
2021/04/19 00:13:36;;;;;;;;;;;;;;;;;;5011356;28;20012;-67
2021/04/19 00:16:02;;;;;;;;;;;;;;;;;;5010389;28;19913;-64
2021/04/19 00:18:28;;;;;;;;;;;;;;;;;;5011323;28;19995;-66
2021/04/19 00:20:54;;;;;;;;;;;;;;;;;;5011270;28;20281;-67
2021/04/19 00:23:20;;;;;;;;;;;;;;;;;;5011008;28;19909;-68
2021/04/19 00:25:46;;;;;;;;;;;;;;;;;;5009582;28;20293;-65
2021/04/19 00:28:12;;;;;;;;;;;;;;;;;;5010957;28;19905;-66
2021/04/19 00:30:37;;;;;;;;;;;;;;;;;;5011085;28;19909;-67
2021/04/19 00:33:03;;;;;;;;;;;;;;;;;;5010567;28;19948;-66
2021/04/19 00:35:29;;;;;;;;;;;;;;;;;;5011062;28;20003;-66
2021/04/19 00:37:55;;;;;;;;;;;;;;;;;;5010412;28;19909;-65
2021/04/19 00:40:21;;;;;;;;;;;;;;;;;;5010691;28;19963;-66
2021/04/19 00:42:47;;;;;;;;;;;;;;;;;;5008975;28;19906;-65
2021/04/19 00:45:12;;;;;;;;;;;;;;;;;;5010518;28;19947;-66
2021/04/19 00:47:38;;;;;;;;;;;;;;;;;;5010935;28;19909;-66
2021/04/19 00:50:04;;;;;;;;;;;;;;;;;;5010285;28;20073;-66
2021/04/19 00:52:30;;;;;;;;;;;;;;;;;;5010339;28;19960;-68
2021/04/19 00:54:56;;;;;;;;;;;;;;;;;;5010316;28;19940;-66
2021/04/19 00:57:22;;;;;;;;;;;;;;;;;;5011478;28;19916;-66
2021/04/19 00:59:48;;;;;;;;;;;;;;;;;;5013845;28;19979;-65
2021/04/19 01:02:14;;;;;;;;;;;;;;;;;;5014025;28;19913;-65
2021/04/19 01:04:39;;;;;;;;;;;;;;;;;;5014627;28;19910;-65
2021/04/19 01:07:05;;;;;;;;;;;;;;;;;;5015610;28;20062;-65
2021/04/19 01:09:31;;;;;;;;;;;;;;;;;;5015576;28;19976;-66
2021/04/19 01:11:57;;;;;;;;;;;;;;;;;;5014582;28;19926;-66
2021/04/19 01:14:23;;;;;;;;;;;;;;;;;;5015064;28;20401;-65
2021/04/19 01:16:49;;;;;;;;;;;;;;;;;;5015301;28;19924;-67
2021/04/19 01:19:14;;;;;;;;;;;;;;;;;;5015000;28;19924;-67
2021/04/19 01:21:40;;;;;;;;;;;;;;;;;;5015755;28;19909;-67
2021/04/19 01:24:06;;;;;;;;;;;;;;;;;;5016655;28;19909;-66
2021/04/19 01:26:32;;;;;;;;;;;;;;;;;;5015928;28;20361;-66
2021/04/19 01:28:58;;;;;;;;;;;;;;;;;;5016177;28;19948;-66
2021/04/19 01:31:24;;;;;;;;;;;;;;;;;;5015989;28;19920;-66
2021/04/19 01:33:49;;;;;;;;;;;;;;;;;;5014824;28;19940;-66
2021/04/19 01:36:15;;;;;;;;;;;;;;;;;;5015777;28;19924;-67
2021/04/19 01:38:41;;;;;;;;;;;;;;;;;;5015346;28;19917;-67
2021/04/19 01:41:07;;;;;;;;;;;;;;;;;;5015622;28;19922;-66
2021/04/19 01:43:33;;;;;;;;;;;;;;;;;;5015541;28;19962;-66
2021/04/19 01:45:59;;;;;;;;;;;;;;;;;;5016401;28;20298;-66
2021/04/19 01:48:25;;;;;;;;;;;;;;;;;;5019099;28;19927;-67
2021/04/19 01:50:50;;;;;;;;;;;;;;;;;;5019548;28;19947;-67
2021/04/19 01:53:16;;;;;;;;;;;;;;;;;;5013831;28;19928;-66
2021/04/19 01:55:42;;;;;;;;;;;;;;;;;;5014058;28;19940;-67
2021/04/19 01:58:08;;;;;;;;;;;;;;;;;;5016215;28;19969;-67
2021/04/19 02:00:34;;;;;;;;;;;;;;;;;;5012880;28;20279;-67
2021/04/19 02:03:00;;;;;;;;;;;;;;;;;;5012842;28;20026;-67
2021/04/19 02:05:27;;;;;;;;;;;;;;;;;;5016333;28;19972;-67
2021/04/19 02:07:53;;;;;;;;;;;;;;;;;;5016563;28;19924;-68
2021/04/19 02:10:19;;;;;;;;;;;;;;;;;;5014577;28;19922;-66
2021/04/19 02:12:45;;;;;;;;;;;;;;;;;;5013598;28;19934;-67
2021/04/19 02:15:10;;;;;;;;;;;;;;;;;;5013614;28;19924;-67
2021/04/19 02:17:36;;;;;;;;;;;;;;;;;;5013755;28;20021;-67
2021/04/19 02:20:02;;;;;;;;;;;;;;;;;;5003517;28;20414;-66
2021/04/19 02:22:28;;;;;;;;;;;;;;;;;;4996398;28;19964;-66
2021/04/19 02:24:54;;;;;;;;;;;;;;;;;;5000157;28;20263;-66
2021/04/19 02:27:20;;;;;;;;;;;;;;;;;;5011293;28;20046;-66
2021/04/19 02:29:45;;;;;;;;;;;;;;;;;;5012492;28;19938;-66
2021/04/19 02:32:11;;;;;;;;;;;;;;;;;;5011624;28;19924;-66
2021/04/19 02:34:37;;;;;;;;;;;;;;;;;;5006635;28;19916;-67
2021/04/19 02:37:03;;;;;;;;;;;;;;;;;;5012545;28;20476;-66
2021/04/19 02:39:29;;;;;;;;;;;;;;;;;;5009902;28;20004;-68
2021/04/19 02:41:55;;;;;;;;;;;;;;;;;;5011936;28;19945;-67
2021/04/19 02:44:21;;;;;;;;;;;;;;;;;;5011896;28;19962;-66
2021/04/19 02:46:46;;;;;;;;;;;;;;;;;;5012375;28;20003;-66
2021/04/19 02:49:12;;;;;;;;;;;;;;;;;;5012282;28;19950;-65
2021/04/19 02:51:38;;;;;;;;;;;;;;;;;;5011892;28;20012;-66
2021/04/19 02:54:04;;;;;;;;;;;;;;;;;;5012146;28;19928;-66
2021/04/19 02:56:30;;;;;;;;;;;;;;;;;;5012068;28;20373;-66
2021/04/19 02:58:56;;;;;;;;;;;;;;;;;;5012336;28;20010;-67
2021/04/19 03:01:22;;;;;;;;;;;;;;;;;;5011236;28;19969;-67
2021/04/19 03:03:48;;;;;;;;;;;;;;;;;;5012120;28;19922;-67
2021/04/19 03:06:13;;;;;;;;;;;;;;;;;;5011245;28;20313;-67
2021/04/19 03:08:42;;;;;;;;;;;;;;;;;;5008494;28;20475;-67
2021/04/19 03:11:08;;;;;;;;;;;;;;;;;;5011092;28;19934;-67
2021/04/19 03:13:34;;;;;;;;;;;;;;;;;;5012046;28;19919;-67
2021/04/19 03:16:00;;;;;;;;;;;;;;;;;;5011792;28;20554;-67
2021/04/19 03:18:28;;;;;;;;;;;;;;;;;;5011675;28;19932;-67
2021/04/19 03:20:54;;;;;;;;;;;;;;;;;;5011203;28;19956;-66
2021/04/19 03:23:20;;;;;;;;;;;;;;;;;;5011464;28;20003;-68
2021/04/19 03:25:46;;;;;;;;;;;;;;;;;;5011425;28;19967;-65
2021/04/19 03:28:12;;;;;;;;;;;;;;;;;;5011818;28;19923;-66
2021/04/19 03:30:39;;;;;;;;;;;;;;;;;;5011054;28;20389;-66
2021/04/19 03:33:05;;;;;;;;;;;;;;;;;;5011373;28;20293;-67
2021/04/19 03:35:30;;;;;;;;;;;;;;;;;;5007922;28;19937;-66
2021/04/19 03:37:56;;;;;;;;;;;;;;;;;;5008635;28;20400;-68
2021/04/19 03:40:22;;;;;;;;;;;;;;;;;;5010932;28;19922;-66
2021/04/19 03:42:48;;;;;;;;;;;;;;;;;;5010701;28;19975;-66
2021/04/19 03:45:14;;;;;;;;;;;;;;;;;;5023317;22;19971;-71
2021/04/19 03:47:40;;;;;;;;;;;;;;;;;;5008484;28;19979;-70
2021/04/19 03:50:06;;;;;;;;;;;;;;;;;;5003917;28;19926;-70
2021/04/19 03:52:31;;;;;;;;;;;;;;;;;;5007515;28;20392;-71
2021/04/19 03:55:00;;;;;;;;;;;;;;;;;;4996052;28;19924;-71
2021/04/19 03:57:26;;;;;;;;;;;;;;;;;;4992575;28;19929;-70
2021/04/19 03:59:52;;;;;;;;;;;;;;;;;;4990987;28;20007;-70
2021/04/19 04:02:18;;;;;;;;;;;;;;;;;;4992563;28;19924;-72
2021/04/19 04:04:44;;;;;;;;;;;;;;;;;;5004276;28;19978;-72
2021/04/19 04:07:10;;;;;;;;;;;;;;;;;;4992238;28;19943;-70
2021/04/19 04:09:38;;;;;;;;;;;;;;;;;;4991961;28;20411;-70
2021/04/19 04:12:06;;;;;;;;;;;;;;;;;;4991436;28;20612;-72
2021/04/19 04:14:32;;;;;;;;;;;;;;;;;;4982048;28;19942;-72
2021/04/19 04:16:58;;;;;;;;;;;;;;;;;;4988390;28;20014;-71
2021/04/19 04:19:24;;;;;;;;;;;;;;;;;;4983853;28;19969;-71
2021/04/19 04:21:50;;;;;;;;;;;;;;;;;;4982716;28;19917;-71
2021/04/19 04:24:16;;;;;;;;;;;;;;;;;;4983468;28;19945;-71
2021/04/19 04:26:42;;;;;;;;;;;;;;;;;;4992488;28;20027;-70
2021/04/19 04:29:07;;;;;;;;;;;;;;;;;;5041608;22;20363;-69
2021/04/19 04:31:33;;;;;;;;;;;;;;;;;;5023767;28;19939;-69
2021/04/19 04:33:59;;;;;;;;;;;;;;;;;;5020237;28;19963;-69
2021/04/19 04:36:25;;;;;;;;;;;;;;;;;;5023975;28;19974;-69
2021/04/19 04:38:51;;;;;;;;;;;;;;;;;;5025486;28;19932;-68
2021/04/19 04:41:17;;;;;;;;;;;;;;;;;;5021488;28;19921;-69
2021/04/19 04:43:43;;;;;;;;;;;;;;;;;;5024369;28;19925;-69
2021/04/19 04:46:09;;;;;;;;;;;;;;;;;;5023486;28;20451;-69
2021/04/19 04:48:34;;;;;;;;;;;;;;;;;;5017276;28;20391;-69
2021/04/19 04:51:00;;;;;;;;;;;;;;;;;;5014472;28;19932;-69
2021/04/19 04:53:26;;;;;;;;;;;;;;;;;;5014276;28;19941;-69
2021/04/19 04:55:52;;;;;;;;;;;;;;;;;;5014595;28;20471;-69
2021/04/19 04:58:18;;;;;;;;;;;;;;;;;;5014195;28;19931;-69
2021/04/19 05:00:44;;;;;;;;;;;;;;;;;;4994326;28;19922;-69
2021/04/19 05:03:10;;;;;;;;;;;;;;;;;;5021326;28;19931;-69
2021/04/19 05:05:36;;;;;;;;;;;;;;;;;;5026879;28;19975;-69
2021/04/19 05:08:01;;;;;;;;;;;;;;;;;;5025878;28;19936;-69
2021/04/19 05:10:27;;;;;;;;;;;;;;;;;;5022203;28;19935;-68
2021/04/19 05:12:53;;;;;;;;;;;;;;;;;;5012661;28;19971;-69
2021/04/19 05:15:19;;;;;;;;;;;;;;;;;;5012851;28;19941;-69
2021/04/19 05:17:45;;;;;;;;;;;;;;;;;;5014520;28;20019;-67
2021/04/19 05:20:11;;;;;;;;;;;;;;;;;;5013042;28;20092;-68
2021/04/19 05:22:37;;;;;;;;;;;;;;;;;;5010914;28;19938;-69
2021/04/19 05:25:02;;;;;;;;;;;;;;;;;;5013294;28;19946;-68
2021/04/19 05:27:28;;;;;;;;;;;;;;;;;;5013059;28;19935;-69
2021/04/19 05:29:54;;;;;;;;;;;;;;;;;;5012764;28;20022;-68
2021/04/19 05:32:21;;;;;;;;;;;;;;;;;;5011916;28;19943;-69
2021/04/19 05:34:47;;;;;;;;;;;;;;;;;;5011649;28;19924;-69
2021/04/19 05:37:13;;;;;;;;;;;;;;;;;;5012996;28;20058;-69
2021/04/19 05:39:39;;;;;;;;;;;;;;;;;;5013001;28;19965;-69
2021/04/19 05:42:05;;;;;;;;;;;;;;;;;;5010592;28;19917;-69
2021/04/19 05:44:31;;;;;;;;;;;;;;;;;;5012287;28;19930;-69
2021/04/19 05:46:57;;;;;;;;;;;;;;;;;;5012450;28;20461;-68
2021/04/19 05:49:23;;;;;;;;;;;;;;;;;;4993644;28;19992;-69
2021/04/19 05:51:48;;;;;;;;;;;;;;;;;;5009807;28;20338;-69
2021/04/19 05:54:14;;;;;;;;;;;;;;;;;;5012216;28;19932;-68
2021/04/19 05:56:40;;;;;;;;;;;;;;;;;;5011500;28;19977;-69
2021/04/19 05:59:06;;;;;;;;;;;;;;;;;;5011822;28;19926;-68
2021/04/19 06:01:32;;;;;;;;;;;;;;;;;;5010267;28;20342;-68
2021/04/19 06:03:58;;;;;;;;;;;;;;;;;;5010133;28;19931;-69
2021/04/19 06:06:24;;;;;;;;;;;;;;;;;;5010406;28;19982;-70
2021/04/19 06:08:50;;;;;;;;;;;;;;;;;;5008358;28;19967;-69
2021/04/19 06:11:16;;;;;;;;;;;;;;;;;;5012090;28;19930;-69
2021/04/19 06:13:42;;;;;;;;;;;;;;;;;;5013143;28;19959;-68
2021/04/19 06:16:07;;;;;;;;;;;;;;;;;;5012697;28;20012;-68
2021/04/19 06:18:33;;;;;;;;;;;;;;;;;;5021169;28;19928;-69
2021/04/19 06:21:01;;;;;;;;;;;;;;;;;;5011294;28;19924;-68
2021/04/19 06:23:27;;;;;;;;;;;;;;;;;;5011694;28;19933;-69
2021/04/19 06:25:53;;;;;;;;;;;;;;;;;;5011704;28;19951;-69
2021/04/19 06:28:19;;;;;;;;;;;;;;;;;;5011443;28;19930;-69
2021/04/19 06:30:45;;;;;;;;;;;;;;;;;;5011934;28;20429;-69
2021/04/19 06:33:11;;;;;;;;;;;;;;;;;;5022517;28;20336;-69
2021/04/19 06:35:36;;;;;;;;;;;;;;;;;;5012427;28;19990;-69
2021/04/19 06:38:02;;;;;;;;;;;;;;;;;;5013077;28;19922;-69
2021/04/19 06:40:28;;;;;;;;;;;;;;;;;;5012891;28;19926;-69
2021/04/19 06:42:54;;;;;;;;;;;;;;;;;;5014137;28;19934;-69
2021/04/19 06:45:20;;;;;;;;;;;;;;;;;;5012404;28;19948;-68
2021/04/19 06:47:46;;;;;;;;;;;;;;;;;;5012700;28;19935;-69
2021/04/19 06:50:12;;;;;;;;;;;;;;;;;;5010902;28;19919;-69
2021/04/19 06:52:39;;;;;;;;;;;;;;;;;;5011956;28;19919;-68
2021/04/19 06:55:05;;;;;;;;;;;;;;;;;;5012122;28;19947;-69
2021/04/19 06:57:31;;;;;;;;;;;;;;;;;;5011799;28;20029;-68
2021/04/19 06:59:57;;;;;;;;;;;;;;;;;;5011334;28;19992;-68
2021/04/19 07:02:23;;;;;;;;;;;;;;;;;;5015158;28;19921;-69
2021/04/19 07:04:49;;;;;;;;;;;;;;;;;;5028193;28;19929;-66
2021/04/19 07:07:15;;;;;;;;;;;;;;;;;;5013542;28;19944;-70
2021/04/19 07:09:41;;;;;;;;;;;;;;;;;;5013742;28;20347;-68
2021/04/19 07:12:07;;;;;;;;;;;;;;;;;;5023917;28;19930;-69
2021/04/19 07:14:34;;;;;;;;;;;;;;;;;;5012662;28;19927;-70
2021/04/19 07:17:00;;;;;;;;;;;;;;;;;;5012860;28;19942;-69
2021/04/19 07:19:26;;;;;;;;;;;;;;;;;;5010474;28;20434;-69
2021/04/19 07:21:52;;;;;;;;;;;;;;;;;;5001625;28;19960;-70
2021/04/19 07:24:18;;;;;;;;;;;;;;;;;;5011610;28;19929;-70
2021/04/19 07:26:45;;;;;;;;;;;;;;;;;;5013937;28;19946;-69
2021/04/19 07:29:11;;;;;;;;;;;;;;;;;;5015088;28;20046;-70
2021/04/19 07:31:37;;;;;;;;;;;;;;;;;;5018315;28;19985;-70
2021/04/19 07:34:02;;;;;;;;;;;;;;;;;;5016100;28;19906;-70
2021/04/19 07:36:28;;;;;;;;;;;;;;;;;;5011605;28;19913;-70
2021/04/19 07:38:54;;;;;;;;;;;;;;;;;;5013002;28;19913;-70
2021/04/19 07:41:20;;;;;;;;;;;;;;;;;;5011706;28;19928;-70
2021/04/19 07:43:46;;;;;;;;;;;;;;;;;;5013569;28;19924;-70
2021/04/19 07:46:14;;;;;;;;;;;;;;;;;;5019065;28;19913;-70
2021/04/19 07:48:40;;;;;;;;;;;;;;;;;;5019611;28;19909;-70
2021/04/19 07:51:06;;;;;;;;;;;;;;;;;;5013698;28;20567;-70
2021/04/19 07:53:32;;;;;;;;;;;;;;;;;;5009030;28;19916;-69
2021/04/19 07:55:58;;;;;;;;;;;;;;;;;;5008639;28;20444;-69
2021/04/19 07:58:24;;;;;;;;;;;;;;;;;;5009164;28;19948;-69
2021/04/19 08:00:50;;;;;;;;;;;;;;;;;;5004586;28;19917;-68
2021/04/19 08:03:16;;;;;;;;;;;;;;;;;;5017740;28;19920;-68
2021/04/19 08:05:42;;;;;;;;;;;;;;;;;;5008861;28;19909;-69
2021/04/19 08:08:08;;;;;;;;;;;;;;;;;;5008833;28;19956;-68
2021/04/19 08:10:34;;;;;;;;;;;;;;;;;;5015044;28;19913;-68
2021/04/19 08:13:00;;;;;;;;;;;;;;;;;;5014942;28;19909;-68
2021/04/19 08:15:26;;;;;;;;;;;;;;;;;;5013958;28;20415;-68
2021/04/19 08:17:51;;;;;;;;;;;;;;;;;;5014082;28;19909;-68
2021/04/19 08:20:17;;;;;;;;;;;;;;;;;;5015163;28;19974;-68
2021/04/19 08:22:43;;;;;;;;;;;;;;;;;;5018957;28;19960;-67
2021/04/19 08:25:09;;;;;;;;;;;;;;;;;;5018452;28;19905;-68
2021/04/19 08:27:35;;;;;;;;;;;;;;;;;;5015062;28;19996;-68
2021/04/19 08:30:01;;;;;;;;;;;;;;;;;;5020982;28;20267;-67
2021/04/19 08:32:29;;;;;;;;;;;;;;;;;;5023276;28;19920;-67
2021/04/19 08:34:55;;;;;;;;;;;;;;;;;;5019970;28;19920;-67
2021/04/19 08:37:21;;;;;;;;;;;;;;;;;;5024021;28;20347;-68
2021/04/19 08:39:47;;;;;;;;;;;;;;;;;;5023895;28;19944;-68
2021/04/19 08:42:13;;;;;;;;;;;;;;;;;;5019556;28;20432;-67
2021/04/19 08:44:38;;;;;;;;;;;;;;;;;;5013525;28;20016;-68
2021/04/19 08:47:06;;;;;;;;;;;;;;;;;;5025108;28;19923;-68
2021/04/19 08:49:32;;;;;;;;;;;;;;;;;;5027972;28;19919;-69
2021/04/19 08:51:58;;;;;;;;;;;;;;;;;;5020267;28;19916;-68
2021/04/19 08:54:24;;;;;;;;;;;;;;;;;;5015542;28;19909;-68
2021/04/19 08:56:50;;;;;;;;;;;;;;;;;;5014621;28;19951;-69
2021/04/19 08:59:16;;;;;;;;;;;;;;;;;;5014595;28;19915;-68
2021/04/19 09:01:42;;;;;;;;;;;;;;;;;;5021386;28;19948;-68
2021/04/19 09:04:08;;;;;;;;;;;;;;;;;;5023688;28;19948;-69
2021/04/19 09:06:34;;;;;;;;;;;;;;;;;;5020103;28;19976;-68
2021/04/19 09:09:07;;;;;;;;;;;;;;;;;;5022744;28;19996;-68
2021/04/19 09:11:33;;;;;;;;;;;;;;;;;;5030831;28;20447;-69
2021/04/19 09:13:59;;;;;;;;;;;;;;;;;;5021544;28;19913;-69
2021/04/19 09:16:25;;;;;;;;;;;;;;;;;;5019069;28;20000;-68
2021/04/19 09:18:50;;;;;;;;;;;;;;;;;;5030083;28;19905;-68
2021/04/19 09:21:16;;;;;;;;;;;;;;;;;;5015834;28;19909;-69
2021/04/19 09:23:42;;;;;;;;;;;;;;;;;;5033264;28;19940;-69
2021/04/19 09:26:09;;;;;;;;;;;;;;;;;;5016816;28;19917;-69
2021/04/19 09:28:35;;;;;;;;;;;;;;;;;;5020734;28;19916;-69
2021/04/19 09:31:01;;;;;;;;;;;;;;;;;;5028373;28;19917;-69
2021/04/19 09:33:27;;;;;;;;;;;;;;;;;;5022021;28;19913;-69
2021/04/19 09:35:53;;;;;;;;;;;;;;;;;;5026049;28;19916;-69
2021/04/19 09:38:19;;;;;;;;;;;;;;;;;;5022135;28;19917;-69
2021/04/19 09:40:45;;;;;;;;;;;;;;;;;;5020894;28;19909;-68
2021/04/19 09:43:11;;;;;;;;;;;;;;;;;;5020181;28;19999;-69
2021/04/19 09:45:37;;;;;;;;;;;;;;;;;;5015314;28;20044;-69
2021/04/19 09:48:03;;;;;;;;;;;;;;;;;;5019508;28;20443;-69
2021/04/19 09:50:29;;;;;;;;;;;;;;;;;;5029104;28;20284;-68
2021/04/19 09:52:54;;;;;;;;;;;;;;;;;;5022637;28;19999;-69
2021/04/19 09:55:20;;;;;;;;;;;;;;;;;;5023357;28;20328;-69
2021/04/19 09:57:46;;;;;;;;;;;;;;;;;;5019476;28;19936;-69
2021/04/19 10:00:13;;;;;;;773.87;698.33;;;;;;;;;;5022561;28;20528;-70
2021/04/19 10:02:43;;;;;;;868.87;794.10;;;;;;;;;;5030328;28;20423;-69
2021/04/19 10:05:11;;;;;;;818.53;743.53;;;;;;;;;;5015024;28;20444;-69
2021/04/19 10:07:38;;;;;;;872.43;798.03;;;;;;;;;;5015128;28;20408;-69
2021/04/19 10:10:04;;;;;;;822.90;749.80;;;;;;;;;;5023710;28;20405;-69
2021/04/19 10:12:32;;;;;;;794.77;724.47;;;;;;;;;;5014405;28;20440;-69
2021/04/19 10:14:58;;;;;;;838.87;767.30;;;;;;;;;;5025913;28;20506;-69
2021/04/19 10:17:27;;;;;;;888.93;815.07;;;;;;;;;;5024231;28;20393;-69
2021/04/19 10:19:53;;;;;;;816.00;744.30;;;;;;;;;;5027762;28;20401;-69
2021/04/19 10:22:19;;;;;;;869.40;795.87;;;;;;;;;;5019645;28;20415;-69
2021/04/19 10:24:52;;;;;;;737.83;668.13;;;;;;;;;;5014618;28;20461;-69
2021/04/19 10:27:29;;;;;;;550.88;443.45;;;;;;;;;;5017460;28;20483;-68
2021/04/19 10:29:55;;;;;;;849.30;778.17;;;;;;;;;;5028707;23;20236;-67
2021/04/19 10:32:31;;;;;;;870.93;798.97;;;;;;;;;;5003801;28;20623;-68
2021/04/19 10:34:57;;;;;;;899.13;825.63;;;;;;;;;;5002780;28;20404;-68
2021/04/19 10:37:23;;;;;;;919.30;845.00;;;;;;;;;;5007244;28;20432;-68
2021/04/19 10:39:48;;;;;;;838.30;763.97;;;;;;;;;;5019442;28;20908;-68
2021/04/19 10:42:22;;;;;;;905.83;830.70;;;;;;;;;;5025958;28;20416;-67
2021/04/19 10:44:48;;;;;;;945.20;869.53;;;;;;;;;;5028605;28;20399;-68
2021/04/19 10:47:15;;;;;;;933.87;857.70;;;;;;;;;;5006375;28;20535;-67
2021/04/19 10:49:41;;;;;;;960.30;881.83;;;;;;;;;;5016942;28;20435;-66
2021/04/19 10:52:08;;;;;;;438.58;201.70;;;;;;;;;;5012787;28;21029;-68
2021/04/19 10:54:36;;;;;;;837.90;763.33;;;;;;;;;;5008824;28;20177;-66
2021/04/19 10:57:03;;;;;;;966.77;885.60;;;;;;;;;;5010236;28;20173;-66
2021/04/19 10:59:29;;;;;;;981.73;903.47;;;;;;;;;;5010357;28;20428;-67
2021/04/19 11:01:57;;;;;;;1000.90;921.53;;;;;;;;;;5019617;28;20420;-68
2021/04/19 11:04:23;;;;;;;1030.40;949.70;;;;;;;;;;5018571;28;20448;-66
2021/04/19 11:06:49;;;;;;;1021.97;942.17;;;;;;;;;;5023426;28;20502;-67
2021/04/19 11:09:19;;;;;;;1010.13;931.73;;;;;;;;;;5020280;28;20464;-66
2021/04/19 11:11:46;;;;;;;1015.63;936.97;;;;;;;;;;5022567;28;20984;-63
2021/04/19 11:14:12;;;;;;;989.93;911.90;;;;;;;;;;5026149;28;20466;-64
2021/04/19 11:16:56;;;;;;;1050.20;969.17;;;;;;;;;;5020400;28;20890;-66
2021/04/19 11:19:32;;;;;;;1028.60;948.63;;;;;;;;;;5021316;28;20502;-66
2021/04/19 11:21:58;;;;;;;1053.07;972.10;;;;;;;;;;5013007;28;20787;-66
2021/04/19 11:24:35;;;;;;;1007.93;922.30;;;;;;;;;;5023042;28;20895;-67
2021/04/19 11:27:08;;;;;;;1019.00;938.30;;;;;;;;;;5021826;28;20447;-67
2021/04/19 11:29:35;;;;;;;1030.30;947.50;;;;;;;;;;5014217;28;20448;-67
2021/04/19 11:32:01;;;;;;;1003.60;923.13;;;;;;;;;;5005480;28;20420;-66
2021/04/19 11:34:34;;;;;;;1301.78;999.90;;;;;;;;;;5014522;28;20426;-66
2021/04/19 11:37:00;;;;;;;1069.77;986.33;;;;;;;;;;5011883;28;20637;-66
2021/04/19 11:39:26;;;;;;;1082.33;997.27;;;;;;;;;;5022433;28;20427;-69
2021/04/19 11:41:53;;;;;;;1062.10;980.20;;;;;;;;;;5013844;28;20927;-64
2021/04/19 11:44:19;;;;;;;1061.53;979.47;;;;;;;;;;5016895;28;20436;-67
2021/04/19 11:46:46;;;;;;;1047.67;965.47;;;;;;;;;;5011040;28;21195;-62
2021/04/19 11:49:15;;;;;;;1072.13;989.50;;;;;;;;;;5011510;28;20448;-66
2021/04/19 11:51:41;;;;;;;1076.90;993.23;;;;;;;;;;5019260;28;20788;-68
2021/04/19 11:54:08;;;;;;;1073.10;990.23;;;;;;;;;;5012133;28;20416;-68
2021/04/19 11:56:34;;;;;;;1069.40;987.77;;;;;;;;;;5015619;28;20802;-67
2021/04/19 11:59:00;;;;;;;1070.17;988.87;;;;;;;;;;5013643;28;20417;-70
2021/04/19 12:01:26;;;;;;;1068.43;986.80;;;;;;;;;;5019725;28;20409;-68
2021/04/19 12:03:52;;;;;;;1051.47;970.93;;;;;;;;;;5020230;28;20404;-70
2021/04/19 12:06:19;;;;;;;1085.50;998.40;;;;;;;;;;5017074;28;20459;-69
2021/04/19 12:08:46;;;;;;;1071.37;989.73;;;;;;;;;;5022342;28;20754;-67
2021/04/19 12:11:13;;;;;;;1067.00;985.30;;;;;;;;;;5021229;28;20998;-70
2021/04/19 12:13:39;;;;;;;1075.67;993.47;;;;;;;;;;5025005;28;20935;-68
2021/04/19 12:16:05;;;;;;;1085.30;995.73;;;;;;;;;;5016373;28;20427;-68
2021/04/19 12:18:33;;;;;;;1059.20;972.53;;;;;;;;;;5026567;28;20426;-68
2021/04/19 12:21:00;;;;;;;1088.00;997.97;;;;;;;;;;5031098;28;20420;-68
2021/04/19 12:23:28;;;;;;;1060.40;978.10;;;;;;;;;;5027923;28;20495;-69
2021/04/19 12:25:54;;;;;;;1095.53;999.90;;;;;;;;;;5010141;28;20464;-67
2021/04/19 12:28:21;;;;;;;1096.90;999.90;;;;;;;;;;5010298;28;20404;-68
2021/04/19 12:30:47;;;;;;;1059.67;976.43;;;;;;;;;;5009355;28;20451;-69
2021/04/19 12:33:13;;;;;;;1146.03;999.90;;;;;;;;;;5010073;28;20397;-69
2021/04/19 12:35:39;;;;;;;1127.07;999.90;;;;;;;;;;5009888;28;20789;-69
2021/04/19 12:38:05;;;;;;;1080.00;994.13;;;;;;;;;;5009837;28;20420;-68
2021/04/19 12:40:31;;;;;;;1100.07;999.90;;;;;;;;;;5008902;28;20918;-68
2021/04/19 12:42:58;;;;;;;1110.73;999.90;;;;;;;;;;5009540;28;20493;-69
2021/04/19 12:45:26;;;;;;;1117.30;999.90;;;;;;;;;;5010335;28;20496;-70
2021/04/19 12:47:53;;;;;;;1143.30;999.90;;;;;;;;;;5010219;28;20479;-67
2021/04/19 12:50:19;;;;;;;1119.23;999.90;;;;;;;;;;5013916;28;20456;-69
2021/04/19 12:52:45;;;;;;;1113.60;999.90;;;;;;;;;;5010382;28;20443;-67
2021/04/19 12:55:11;;;;;;;1133.53;999.90;;;;;;;;;;5010800;28;20405;-69
2021/04/19 12:57:37;;;;;;;1131.63;999.90;;;;;;;;;;5016270;28;20410;-68
2021/04/19 13:00:04;;;;;;;1115.97;999.90;;;;;;;;;;5014832;28;20814;-68
2021/04/19 13:02:30;;;;;;;1113.47;999.90;;;;;;;;;;5014416;28;20934;-69
2021/04/19 13:04:56;;;;;;;1112.07;999.90;;;;;;;;;;5018089;28;20404;-68
2021/04/19 13:07:22;;;;;;;1132.40;999.90;;;;;;;;;;5021598;28;20463;-68
2021/04/19 13:09:48;;;;;;;1124.63;999.90;;;;;;;;;;5022985;28;20450;-70
2021/04/19 13:12:14;;;;;;;1129.33;999.90;;;;;;;;;;5017164;28;20408;-70
2021/04/19 13:14:41;;;;;;;1130.83;999.90;;;;;;;;;;5027606;28;20961;-69
2021/04/19 13:17:09;;;;;;;1142.00;999.90;;;;;;;;;;5022068;28;20409;-70
2021/04/19 13:19:35;;;;;;;1134.00;999.90;;;;;;;;;;5020470;28;20436;-69
2021/04/19 13:22:01;;;;;;;1139.10;999.90;;;;;;;;;;5021779;28;20425;-70
2021/04/19 13:24:27;;;;;;;1152.30;999.90;;;;;;;;;;4991662;28;20409;-69
2021/04/19 13:26:53;;;;;;;626.30;564.37;;;;;;;;;;4993735;28;20457;-69
2021/04/19 13:29:19;;;;;;;147.27;66.43;;;;;;;;;;4993255;28;20462;-69
2021/04/19 13:31:48;;;;;;;219.47;92.57;;;;;;;;;;5020766;28;20444;-69
2021/04/19 13:34:14;;;;;;;79.87;55.27;;;;;;;;;;5002661;28;20416;-69
2021/04/19 13:36:40;;;;;;;81.63;51.10;;;;;;;;;;5018104;28;21085;-71
2021/04/19 13:39:06;;;;;;;84.07;56.47;;;;;;;;;;5003519;28;20417;-71
2021/04/19 13:41:32;;;;;;;75.47;63.07;;;;;;;;;;4987217;28;20855;-70
2021/04/19 13:43:58;;;;;;;681.60;618.23;;;;;;;;;;5000598;28;20420;-69
2021/04/19 13:46:25;;;;;;;424.60;145.33;;;;;;;;;;5006484;28;20982;-69
2021/04/19 13:49:25;;;;;;;460.38;170.70;;;;;;;;;;5573632;22;20578;-74
2021/04/19 13:51:51;;;;;;;409.08;123.05;;;;;;;;;;5015482;28;20206;-75
2021/04/19 13:54:19;;;;;;;129.47;43.03;;;;;;;;;;5013293;28;20169;-76
2021/04/19 13:56:45;;;;;;;131.60;45.77;;;;;;;;;;5014128;28;20484;-75
2021/04/19 13:59:13;;;;;;;115.17;35.17;;;;;;;;;;4999129;28;20787;-74
2021/04/19 14:01:39;;;;;;;12.10;10.90;;;;;;;;;;5020039;23;20389;-68
2021/04/19 14:04:05;;;;;;;433.63;406.98;;;;;;;;;;5004916;28;20935;-67
2021/04/19 14:06:31;;;;;;;158.23;87.55;;;;;;;;;;5007362;28;20296;-68
2021/04/19 14:08:58;;;;;;;50.20;32.80;;;;;;;;;;5001324;28;20173;-69
2021/04/19 14:11:24;;;;;;;157.90;62.22;;;;;;;;;;5009446;28;20472;-69
2021/04/19 14:13:50;;;;;;;165.80;68.43;;;;;;;;;;5011119;28;20174;-68
2021/04/19 14:16:16;;;;;;;154.93;65.82;;;;;;;;;;5030712;23;20247;-67
2021/04/19 14:18:42;;;;;;;183.38;80.38;;;;;;;;;;5022409;28;20233;-68
2021/04/19 14:21:09;;;;;;;108.80;54.83;;;;;;;;;;5014476;28;20246;-67
2021/04/19 14:23:35;;;;;;;114.32;47.15;;;;;;;;;;5017876;28;20421;-66
2021/04/19 14:26:05;;;;;;;150.05;62.88;;;;;;;;;;5012822;28;20293;-65
2021/04/19 14:28:32;;;;;;;157.65;65.28;;;;;;;;;;5007409;28;20166;-67
2021/04/19 14:31:00;;;;;;;133.60;63.90;;;;;;;;;;5007085;28;20178;-68
2021/04/19 14:33:28;;;;;;;172.75;68.38;;;;;;;;;;5001982;28;20180;-68
2021/04/19 14:35:54;;;;;;;212.93;66.38;;;;;;;;;;5012573;28;20290;-69
2021/04/19 14:38:21;;;;;;;183.82;59.80;;;;;;;;;;5001447;28;20175;-67
2021/04/19 14:40:47;;;;;;;176.68;65.88;;;;;;;;;;5002439;28;20186;-66
2021/04/19 14:43:13;;;;;;;152.50;56.88;;;;;;;;;;4994760;28;20174;-66
2021/04/19 14:45:39;;;;;;;174.03;65.87;;;;;;;;;;4990331;28;20206;-67
2021/04/19 14:48:06;;;;;;;182.23;70.35;;;;;;;;;;4982905;28;20399;-69
2021/04/19 14:50:32;;;;;;;158.30;67.95;;;;;;;;;;4993587;28;20632;-66
2021/04/19 14:52:58;;;;;;;153.25;61.13;;;;;;;;;;4993819;28;20630;-66
2021/04/19 14:55:24;;;;;;;141.18;65.80;;;;;;;;;;4994731;28;20202;-66
2021/04/19 14:57:50;;;;;;;147.35;65.60;;;;;;;;;;4997452;28;20175;-66
2021/04/19 15:00:16;;;;;;;132.73;67.50;;;;;;;;;;4994190;28;20743;-67
2021/04/19 15:02:42;;;;;;;98.05;53.90;;;;;;;;;;4991970;28;20171;-67
2021/04/19 15:05:09;;;;;;;129.37;60.37;;;;;;;;;;4993794;28;20256;-66
2021/04/19 15:07:35;;;;;;;157.75;67.82;;;;;;;;;;4998650;28;20433;-68
2021/04/19 15:10:01;;;;;;;136.70;60.47;;;;;;;;;;4993979;28;20178;-67
2021/04/19 15:12:27;;;;;;;96.40;52.30;;;;;;;;;;4997225;28;20425;-67
2021/04/19 15:14:52;;;;;;;107.50;53.10;;;;;;;;;;4997895;28;20425;-68
2021/04/19 15:17:18;;;;;;;107.17;42.77;;;;;;;;;;4996783;28;20462;-67
2021/04/19 15:19:46;;;;;;;117.53;62.53;;;;;;;;;;4999677;28;20413;-66
2021/04/19 15:22:12;;;;;;;176.85;65.97;;;;;;;;;;4993833;28;20410;-66
2021/04/19 15:24:38;;;;;;;88.47;48.53;;;;;;;;;;4997848;28;20166;-67
2021/04/19 15:27:04;;;;;;;146.50;79.80;;;;;;;;;;5009741;28;20568;-69
2021/04/19 15:29:31;;;;;;;121.85;51.20;;;;;;;;;;4988540;28;20224;-66